Boisdale, Canada
Current Conditions -  °F | °C
As of 2:00 AM on Sunday 21 Dec 2014 (Local Time) from CYQY Reporting Station
Overcast Overcast  
Wind Chill: 23°   Ceiling: 2400
Heat Index: 30°   Visibility: 15mi
Dew Point: 23°   Wind: 8mph
Humidity: 75%   Direction: 10°N
Pressure: 30.29"   Gusts: NA
Location:  46.1°N, 60.5°W
Report Text: CYQY 210600Z 01007KT 15SM OVC024 M01/M05 A3029 RMK SC8 SLP260
Loading
Personal Weather Stations






























Interactive Weather Map New forecast layout! Learn more

10-Day Weather Forecast

Advertisements
Track Severe Weather on mobile